Terminal Aerodrome Forecast
Issued by NWS

Home | Current Version | Previous Version | Text Only | Print | Product List | Glossary On
Versions: 1 2 3 4 5 6 7 8 9 10 11 12 13 14 15
000
FTUS44 KBMX 310520
TAFTOI
TAF
KTOI 310520Z 3106/0106 00000KT P6SM BKN150
     FM310800 00000KT 4SM BR BKN250
     FM311400 27002KT P6SM FEW050 SCT250
     FM311800 26006KT P6SM VCTS BKN050CB=

USA.gov is the U.S. government's official web portal to all federal, state and local government web resources and services.